sensor_id;sensor_type;location;lat;lon;timestamp;P1;durP1;ratioP1;P2;durP2;ratioP2
53871;SDS011;39787;53.174;5.798;2023-10-08T00:00:48;0.60;;;0.20;;
53871;SDS011;39787;53.174;5.798;2023-10-08T00:01:49;4.00;;;0.37;;
53871;SDS011;39787;53.174;5.798;2023-10-08T00:02:50;0.35;;;0.20;;
53871;SDS011;39787;53.174;5.798;2023-10-08T00:03:50;2.53;;;0.40;;
53871;SDS011;39787;53.174;5.798;2023-10-08T00:04:54;1.83;;;0.30;;
53871;SDS011;39787;53.174;5.798;2023-10-08T00:05:55;1.48;;;0.30;;
53871;SDS011;39787;53.174;5.798;2023-10-08T00:06:55;2.95;;;0.40;;
53871;SDS011;39787;53.174;5.798;2023-10-08T00:07:56;2.17;;;0.50;;
53871;SDS011;39787;53.174;5.798;2023-10-08T00:08:56;1.60;;;1.17;;
53871;SDS011;39787;53.174;5.798;2023-10-08T00:09:57;0.87;;;0.20;;
53871;SDS011;39787;53.174;5.798;2023-10-08T00:10:57;4.30;;;0.40;;
53871;SDS011;39787;53.174;5.798;2023-10-08T00:11:57;4.10;;;0.30;;
53871;SDS011;39787;53.174;5.798;2023-10-08T00:12:58;1.40;;;0.30;;
53871;SDS011;39787;53.174;5.798;2023-10-08T00:13:58;0.30;;;0.30;;
53871;SDS011;39787;53.174;5.798;2023-10-08T00:14:59;1.77;;;0.30;;
53871;SDS011;39787;53.174;5.798;2023-10-08T00:15:59;1.20;;;0.40;;
53871;SDS011;39787;53.174;5.798;2023-10-08T00:17:00;1.03;;;0.40;;
53871;SDS011;39787;53.174;5.798;2023-10-08T00:18:00;1.40;;;0.57;;
53871;SDS011;39787;53.174;5.798;2023-10-08T00:19:01;1.83;;;0.50;;
53871;SDS011;39787;53.174;5.798;2023-10-08T00:20:01;2.47;;;0.50;;
53871;SDS011;39787;53.174;5.798;2023-10-08T00:21:02;2.27;;;0.60;;
53871;SDS011;39787;53.174;5.798;2023-10-08T00:22:03;2.40;;;0.52;;
53871;SDS011;39787;53.174;5.798;2023-10-08T00:23:03;1.57;;;0.60;;
53871;SDS011;39787;53.174;5.798;2023-10-08T00:24:04;4.20;;;0.87;;
53871;SDS011;39787;53.174;5.798;2023-10-08T00:25:04;3.60;;;0.53;;
53871;SDS011;39787;53.174;5.798;2023-10-08T00:26:05;3.27;;;0.70;;
53871;SDS011;39787;53.174;5.798;2023-10-08T00:27:06;3.20;;;0.57;;
53871;SDS011;39787;53.174;5.798;2023-10-08T00:28:10;7.65;;;0.50;;
53871;SDS011;39787;53.174;5.798;2023-10-08T00:29:10;1.17;;;0.32;;
53871;SDS011;39787;53.174;5.798;2023-10-08T00:30:12;2.73;;;0.77;;
53871;SDS011;39787;53.174;5.798;2023-10-08T00:31:13;1.08;;;0.40;;
53871;SDS011;39787;53.174;5.798;2023-10-08T00:32:14;1.67;;;0.50;;
53871;SDS011;39787;53.174;5.798;2023-10-08T00:33:15;3.43;;;0.53;;
53871;SDS011;39787;53.174;5.798;2023-10-08T00:34:16;2.63;;;0.60;;
53871;SDS011;39787;53.174;5.798;2023-10-08T00:35:17;7.25;;;0.82;;
53871;SDS011;39787;53.174;5.798;2023-10-08T00:36:17;2.20;;;0.40;;
53871;SDS011;39787;53.174;5.798;2023-10-08T00:37:18;3.57;;;0.60;;
53871;SDS011;39787;53.174;5.798;2023-10-08T00:38:18;3.57;;;0.60;;
53871;SDS011;39787;53.174;5.798;2023-10-08T00:39:19;3.40;;;0.50;;
53871;SDS011;39787;53.174;5.798;2023-10-08T00:40:19;0.77;;;0.53;;
53871;SDS011;39787;53.174;5.798;2023-10-08T00:41:20;1.23;;;0.50;;
53871;SDS011;39787;53.174;5.798;2023-10-08T00:42:20;4.57;;;0.57;;
53871;SDS011;39787;53.174;5.798;2023-10-08T00:43:31;1.00;;;0.50;;
53871;SDS011;39787;53.174;5.798;2023-10-08T00:44:35;1.75;;;0.50;;
53871;SDS011;39787;53.174;5.798;2023-10-08T00:45:36;2.00;;;0.57;;
53871;SDS011;39787;53.174;5.798;2023-10-08T00:46:37;1.13;;;0.50;;
53871;SDS011;39787;53.174;5.798;2023-10-08T00:47:37;4.97;;;0.80;;
53871;SDS011;39787;53.174;5.798;2023-10-08T00:49:39;4.10;;;0.70;;
53871;SDS011;39787;53.174;5.798;2023-10-08T00:50:40;2.63;;;0.63;;
53871;SDS011;39787;53.174;5.798;2023-10-08T00:51:41;0.73;;;0.40;;
53871;SDS011;39787;53.174;5.798;2023-10-08T00:52:41;2.67;;;0.57;;
53871;SDS011;39787;53.174;5.798;2023-10-08T00:53:42;3.53;;;0.57;;
53871;SDS011;39787;53.174;5.798;2023-10-08T00:54:43;4.25;;;0.60;;
53871;SDS011;39787;53.174;5.798;2023-10-08T00:55:43;2.63;;;0.57;;
53871;SDS011;39787;53.174;5.798;2023-10-08T00:56:45;2.03;;;0.50;;
53871;SDS011;39787;53.174;5.798;2023-10-08T00:57:46;1.05;;;0.65;;
53871;SDS011;39787;53.174;5.798;2023-10-08T00:58:47;1.33;;;0.63;;
53871;SDS011;39787;53.174;5.798;2023-10-08T00:59:48;1.50;;;0.47;;
53871;SDS011;39787;53.174;5.798;2023-10-08T01:00:50;2.25;;;0.47;;
53871;SDS011;39787;53.174;5.798;2023-10-08T01:01:52;4.40;;;0.50;;
53871;SDS011;39787;53.174;5.798;2023-10-08T01:02:53;6.03;;;0.75;;
53871;SDS011;39787;53.174;5.798;2023-10-08T01:03:53;6.57;;;1.17;;
53871;SDS011;39787;53.174;5.798;2023-10-08T01:04:54;2.20;;;0.43;;
53871;SDS011;39787;53.174;5.798;2023-10-08T01:05:55;3.47;;;0.63;;
53871;SDS011;39787;53.174;5.798;2023-10-08T01:06:57;3.33;;;0.70;;
53871;SDS011;39787;53.174;5.798;2023-10-08T01:07:58;2.67;;;0.55;;
53871;SDS011;39787;53.174;5.798;2023-10-08T01:08:58;3.40;;;0.60;;
53871;SDS011;39787;53.174;5.798;2023-10-08T01:09:59;4.67;;;0.70;;
53871;SDS011;39787;53.174;5.798;2023-10-08T01:11:15;1.98;;;0.30;;
53871;SDS011;39787;53.174;5.798;2023-10-08T01:12:22;4.05;;;0.60;;
53871;SDS011;39787;53.174;5.798;2023-10-08T01:13:23;3.58;;;0.60;;
53871;SDS011;39787;53.174;5.798;2023-10-08T01:14:23;6.90;;;0.67;;
53871;SDS011;39787;53.174;5.798;2023-10-08T01:15:24;0.97;;;0.23;;
53871;SDS011;39787;53.174;5.798;2023-10-08T01:16:25;1.43;;;0.40;;
53871;SDS011;39787;53.174;5.798;2023-10-08T01:17:25;1.45;;;0.28;;
53871;SDS011;39787;53.174;5.798;2023-10-08T01:18:25;2.10;;;0.50;;
53871;SDS011;39787;53.174;5.798;2023-10-08T01:19:26;1.90;;;0.53;;
53871;SDS011;39787;53.174;5.798;2023-10-08T01:20:27;2.30;;;0.57;;
53871;SDS011;39787;53.174;5.798;2023-10-08T01:21:30;5.72;;;0.68;;
53871;SDS011;39787;53.174;5.798;2023-10-08T01:22:31;3.42;;;0.50;;
53871;SDS011;39787;53.174;5.798;2023-10-08T01:23:31;3.07;;;0.60;;
53871;SDS011;39787;53.174;5.798;2023-10-08T01:24:32;1.80;;;0.30;;
53871;SDS011;39787;53.174;5.798;2023-10-08T01:25:32;3.47;;;0.40;;
53871;SDS011;39787;53.174;5.798;2023-10-08T01:26:33;3.00;;;0.40;;
53871;SDS011;39787;53.174;5.798;2023-10-08T01:28:34;0.80;;;0.30;;
53871;SDS011;39787;53.174;5.798;2023-10-08T01:29:35;1.87;;;0.37;;
53871;SDS011;39787;53.174;5.798;2023-10-08T01:30:35;1.00;;;0.40;;
53871;SDS011;39787;53.174;5.798;2023-10-08T01:31:36;4.10;;;0.60;;
53871;SDS011;39787;53.174;5.798;2023-10-08T01:32:36;2.53;;;0.47;;
53871;SDS011;39787;53.174;5.798;2023-10-08T01:33:37;1.40;;;0.50;;
53871;SDS011;39787;53.174;5.798;2023-10-08T01:34:37;2.47;;;0.50;;
53871;SDS011;39787;53.174;5.798;2023-10-08T01:35:38;1.40;;;0.53;;
53871;SDS011;39787;53.174;5.798;2023-10-08T01:36:39;4.60;;;0.40;;
53871;SDS011;39787;53.174;5.798;2023-10-08T01:37:39;3.60;;;0.63;;
53871;SDS011;39787;53.174;5.798;2023-10-08T01:38:40;2.90;;;0.40;;
53871;SDS011;39787;53.174;5.798;2023-10-08T01:39:40;5.53;;;0.67;;
53871;SDS011;39787;53.174;5.798;2023-10-08T01:40:41;4.50;;;0.53;;
53871;SDS011;39787;53.174;5.798;2023-10-08T01:41:44;1.60;;;0.50;;
53871;SDS011;39787;53.174;5.798;2023-10-08T01:42:45;1.02;;;0.60;;
53871;SDS011;39787;53.174;5.798;2023-10-08T01:43:45;2.93;;;0.50;;
53871;SDS011;39787;53.174;5.798;2023-10-08T01:44:47;8.20;;;1.10;;
53871;SDS011;39787;53.174;5.798;2023-10-08T01:45:48;1.60;;;0.40;;
53871;SDS011;39787;53.174;5.798;2023-10-08T01:46:48;3.67;;;0.40;;
53871;SDS011;39787;53.174;5.798;2023-10-08T01:47:49;2.40;;;0.50;;
53871;SDS011;39787;53.174;5.798;2023-10-08T01:48:49;1.30;;;0.33;;
53871;SDS011;39787;53.174;5.798;2023-10-08T01:49:50;2.47;;;0.50;;
53871;SDS011;39787;53.174;5.798;2023-10-08T01:50:53;0.82;;;0.32;;
53871;SDS011;39787;53.174;5.798;2023-10-08T01:51:55;5.13;;;0.77;;
53871;SDS011;39787;53.174;5.798;2023-10-08T01:52:55;2.03;;;0.50;;
53871;SDS011;39787;53.174;5.798;2023-10-08T01:53:56;2.40;;;0.57;;
53871;SDS011;39787;53.174;5.798;2023-10-08T01:54:56;2.77;;;0.60;;
53871;SDS011;39787;53.174;5.798;2023-10-08T01:55:57;2.70;;;0.33;;
53871;SDS011;39787;53.174;5.798;2023-10-08T01:56:57;2.13;;;0.47;;
53871;SDS011;39787;53.174;5.798;2023-10-08T01:57:58;1.30;;;0.50;;
53871;SDS011;39787;53.174;5.798;2023-10-08T01:58:58;2.37;;;0.50;;
53871;SDS011;39787;53.174;5.798;2023-10-08T01:59:58;2.80;;;0.70;;
53871;SDS011;39787;53.174;5.798;2023-10-08T02:00:59;2.80;;;0.60;;
53871;SDS011;39787;53.174;5.798;2023-10-08T02:01:59;1.57;;;0.40;;
53871;SDS011;39787;53.174;5.798;2023-10-08T02:03:00;3.07;;;0.50;;
53871;SDS011;39787;53.174;5.798;2023-10-08T02:04:00;1.97;;;0.50;;
53871;SDS011;39787;53.174;5.798;2023-10-08T02:05:01;1.90;;;0.60;;
53871;SDS011;39787;53.174;5.798;2023-10-08T02:06:01;1.47;;;0.60;;
53871;SDS011;39787;53.174;5.798;2023-10-08T02:07:02;1.80;;;0.60;;
53871;SDS011;39787;53.174;5.798;2023-10-08T02:08:03;4.80;;;0.60;;
53871;SDS011;39787;53.174;5.798;2023-10-08T02:09:04;1.43;;;0.37;;
53871;SDS011;39787;53.174;5.798;2023-10-08T02:10:04;1.73;;;0.43;;
53871;SDS011;39787;53.174;5.798;2023-10-08T02:11:05;2.30;;;0.38;;
53871;SDS011;39787;53.174;5.798;2023-10-08T02:12:06;5.17;;;0.60;;
53871;SDS011;39787;53.174;5.798;2023-10-08T02:13:07;2.03;;;0.40;;
53871;SDS011;39787;53.174;5.798;2023-10-08T02:14:08;4.75;;;0.73;;
53871;SDS011;39787;53.174;5.798;2023-10-08T02:15:08;2.43;;;0.63;;
53871;SDS011;39787;53.174;5.798;2023-10-08T02:16:09;1.30;;;0.40;;
53871;SDS011;39787;53.174;5.798;2023-10-08T02:17:10;2.17;;;0.50;;
53871;SDS011;39787;53.174;5.798;2023-10-08T02:18:10;4.07;;;0.50;;
53871;SDS011;39787;53.174;5.798;2023-10-08T02:19:11;3.15;;;0.70;;
53871;SDS011;39787;53.174;5.798;2023-10-08T02:21:13;2.30;;;0.63;;
53871;SDS011;39787;53.174;5.798;2023-10-08T02:22:14;4.27;;;0.73;;
53871;SDS011;39787;53.174;5.798;2023-10-08T02:23:14;1.53;;;0.70;;
53871;SDS011;39787;53.174;5.798;2023-10-08T02:24:15;2.80;;;0.43;;
53871;SDS011;39787;53.174;5.798;2023-10-08T02:25:15;2.63;;;0.50;;
53871;SDS011;39787;53.174;5.798;2023-10-08T02:26:16;1.20;;;0.50;;
53871;SDS011;39787;53.174;5.798;2023-10-08T02:27:16;1.80;;;0.57;;
53871;SDS011;39787;53.174;5.798;2023-10-08T02:28:17;4.03;;;0.60;;
53871;SDS011;39787;53.174;5.798;2023-10-08T02:29:17;2.87;;;0.50;;
53871;SDS011;39787;53.174;5.798;2023-10-08T02:30:17;4.50;;;0.70;;
53871;SDS011;39787;53.174;5.798;2023-10-08T02:31:18;2.08;;;0.60;;
53871;SDS011;39787;53.174;5.798;2023-10-08T02:32:19;2.83;;;0.53;;
53871;SDS011;39787;53.174;5.798;2023-10-08T02:33:19;4.27;;;0.67;;
53871;SDS011;39787;53.174;5.798;2023-10-08T02:34:20;3.67;;;0.60;;
53871;SDS011;39787;53.174;5.798;2023-10-08T02:35:20;2.33;;;0.70;;
53871;SDS011;39787;53.174;5.798;2023-10-08T02:36:20;2.37;;;0.60;;
53871;SDS011;39787;53.174;5.798;2023-10-08T02:37:21;5.07;;;0.70;;
53871;SDS011;39787;53.174;5.798;2023-10-08T02:38:21;6.83;;;1.53;;
53871;SDS011;39787;53.174;5.798;2023-10-08T02:39:22;3.67;;;0.67;;
53871;SDS011;39787;53.174;5.798;2023-10-08T02:40:22;1.10;;;0.50;;
53871;SDS011;39787;53.174;5.798;2023-10-08T02:41:23;5.33;;;0.50;;
53871;SDS011;39787;53.174;5.798;2023-10-08T02:42:23;3.33;;;0.70;;
53871;SDS011;39787;53.174;5.798;2023-10-08T02:43:23;3.67;;;0.60;;
53871;SDS011;39787;53.174;5.798;2023-10-08T02:44:24;5.00;;;0.60;;
53871;SDS011;39787;53.174;5.798;2023-10-08T02:45:28;1.63;;;0.30;;
53871;SDS011;39787;53.174;5.798;2023-10-08T02:46:28;2.47;;;0.47;;
53871;SDS011;39787;53.174;5.798;2023-10-08T02:47:29;4.70;;;0.67;;
53871;SDS011;39787;53.174;5.798;2023-10-08T02:48:29;2.70;;;0.70;;
53871;SDS011;39787;53.174;5.798;2023-10-08T02:49:29;2.03;;;0.30;;
53871;SDS011;39787;53.174;5.798;2023-10-08T02:50:30;2.37;;;0.80;;
53871;SDS011;39787;53.174;5.798;2023-10-08T02:51:30;3.60;;;0.90;;
53871;SDS011;39787;53.174;5.798;2023-10-08T02:52:31;2.27;;;0.50;;
53871;SDS011;39787;53.174;5.798;2023-10-08T02:53:31;8.33;;;0.50;;
53871;SDS011;39787;53.174;5.798;2023-10-08T02:54:32;4.30;;;0.63;;
53871;SDS011;39787;53.174;5.798;2023-10-08T02:55:32;3.10;;;0.60;;
53871;SDS011;39787;53.174;5.798;2023-10-08T02:56:32;1.80;;;0.50;;
53871;SDS011;39787;53.174;5.798;2023-10-08T02:57:33;4.87;;;0.70;;
53871;SDS011;39787;53.174;5.798;2023-10-08T02:58:33;6.43;;;1.03;;
53871;SDS011;39787;53.174;5.798;2023-10-08T02:59:34;1.93;;;0.53;;
53871;SDS011;39787;53.174;5.798;2023-10-08T03:00:34;3.40;;;0.70;;
53871;SDS011;39787;53.174;5.798;2023-10-08T03:01:35;2.57;;;0.47;;
53871;SDS011;39787;53.174;5.798;2023-10-08T03:02:35;9.43;;;0.60;;
53871;SDS011;39787;53.174;5.798;2023-10-08T03:03:35;1.80;;;0.70;;
53871;SDS011;39787;53.174;5.798;2023-10-08T03:04:36;2.33;;;0.40;;
53871;SDS011;39787;53.174;5.798;2023-10-08T03:05:36;5.00;;;0.70;;
53871;SDS011;39787;53.174;5.798;2023-10-08T03:06:37;0.87;;;0.33;;
53871;SDS011;39787;53.174;5.798;2023-10-08T03:07:37;3.53;;;0.60;;
53871;SDS011;39787;53.174;5.798;2023-10-08T03:08:38;2.23;;;0.57;;
53871;SDS011;39787;53.174;5.798;2023-10-08T03:09:38;6.50;;;1.30;;
53871;SDS011;39787;53.174;5.798;2023-10-08T03:10:39;3.40;;;0.60;;
53871;SDS011;39787;53.174;5.798;2023-10-08T03:11:40;6.03;;;0.75;;
53871;SDS011;39787;53.174;5.798;2023-10-08T03:12:40;3.10;;;0.73;;
53871;SDS011;39787;53.174;5.798;2023-10-08T03:13:41;3.63;;;0.70;;
53871;SDS011;39787;53.174;5.798;2023-10-08T03:14:43;3.58;;;0.75;;
53871;SDS011;39787;53.174;5.798;2023-10-08T03:15:44;3.17;;;1.02;;
53871;SDS011;39787;53.174;5.798;2023-10-08T03:16:44;3.70;;;0.67;;
53871;SDS011;39787;53.174;5.798;2023-10-08T03:17:44;6.50;;;0.80;;
53871;SDS011;39787;53.174;5.798;2023-10-08T03:18:45;5.80;;;0.70;;
53871;SDS011;39787;53.174;5.798;2023-10-08T03:19:46;3.70;;;0.67;;
53871;SDS011;39787;53.174;5.798;2023-10-08T03:20:46;3.65;;;0.70;;
53871;SDS011;39787;53.174;5.798;2023-10-08T03:21:47;5.60;;;0.83;;
53871;SDS011;39787;53.174;5.798;2023-10-08T03:23:49;5.10;;;0.80;;
53871;SDS011;39787;53.174;5.798;2023-10-08T03:24:49;2.13;;;0.60;;
53871;SDS011;39787;53.174;5.798;2023-10-08T03:25:50;4.47;;;0.67;;
53871;SDS011;39787;53.174;5.798;2023-10-08T03:26:52;5.18;;;1.13;;
53871;SDS011;39787;53.174;5.798;2023-10-08T03:27:52;6.33;;;0.90;;
53871;SDS011;39787;53.174;5.798;2023-10-08T03:28:53;2.87;;;0.53;;
53871;SDS011;39787;53.174;5.798;2023-10-08T03:29:54;3.70;;;0.80;;
53871;SDS011;39787;53.174;5.798;2023-10-08T03:30:54;2.33;;;0.67;;
53871;SDS011;39787;53.174;5.798;2023-10-08T03:31:55;4.35;;;1.15;;
53871;SDS011;39787;53.174;5.798;2023-10-08T03:32:56;5.07;;;1.27;;
53871;SDS011;39787;53.174;5.798;2023-10-08T03:33:56;3.73;;;0.60;;
53871;SDS011;39787;53.174;5.798;2023-10-08T03:34:56;4.00;;;0.80;;
53871;SDS011;39787;53.174;5.798;2023-10-08T03:35:57;4.83;;;0.90;;
53871;SDS011;39787;53.174;5.798;2023-10-08T03:36:57;2.50;;;0.70;;
53871;SDS011;39787;53.174;5.798;2023-10-08T03:37:58;5.17;;;0.90;;
53871;SDS011;39787;53.174;5.798;2023-10-08T03:38:58;10.57;;;1.07;;
53871;SDS011;39787;53.174;5.798;2023-10-08T03:39:59;5.53;;;0.90;;
53871;SDS011;39787;53.174;5.798;2023-10-08T03:40:59;12.33;;;0.97;;
53871;SDS011;39787;53.174;5.798;2023-10-08T03:42:00;6.83;;;0.80;;
53871;SDS011;39787;53.174;5.798;2023-10-08T03:43:00;4.97;;;1.37;;
53871;SDS011;39787;53.174;5.798;2023-10-08T03:44:01;3.15;;;0.93;;
53871;SDS011;39787;53.174;5.798;2023-10-08T03:45:02;5.70;;;0.80;;
53871;SDS011;39787;53.174;5.798;2023-10-08T03:46:02;5.22;;;0.73;;
53871;SDS011;39787;53.174;5.798;2023-10-08T03:47:03;4.43;;;0.90;;
53871;SDS011;39787;53.174;5.798;2023-10-08T03:48:04;4.65;;;1.00;;
53871;SDS011;39787;53.174;5.798;2023-10-08T03:49:05;7.55;;;1.45;;
53871;SDS011;39787;53.174;5.798;2023-10-08T03:50:06;6.90;;;1.00;;
53871;SDS011;39787;53.174;5.798;2023-10-08T03:51:07;7.07;;;1.35;;
53871;SDS011;39787;53.174;5.798;2023-10-08T03:52:07;4.73;;;0.63;;
53871;SDS011;39787;53.174;5.798;2023-10-08T03:53:08;9.80;;;1.07;;
53871;SDS011;39787;53.174;5.798;2023-10-08T03:54:09;7.32;;;1.40;;
53871;SDS011;39787;53.174;5.798;2023-10-08T03:55:09;4.43;;;1.03;;
53871;SDS011;39787;53.174;5.798;2023-10-08T03:56:10;3.87;;;0.63;;
53871;SDS011;39787;53.174;5.798;2023-10-08T03:57:10;2.90;;;0.80;;
53871;SDS011;39787;53.174;5.798;2023-10-08T03:58:10;5.23;;;1.07;;
53871;SDS011;39787;53.174;5.798;2023-10-08T03:59:12;2.90;;;0.50;;
53871;SDS011;39787;53.174;5.798;2023-10-08T04:00:13;7.32;;;1.00;;
53871;SDS011;39787;53.174;5.798;2023-10-08T04:01:13;5.37;;;1.10;;
53871;SDS011;39787;53.174;5.798;2023-10-08T04:02:14;3.33;;;0.80;;
53871;SDS011;39787;53.174;5.798;2023-10-08T04:03:14;5.53;;;0.80;;
53871;SDS011;39787;53.174;5.798;2023-10-08T04:04:15;5.57;;;1.03;;
53871;SDS011;39787;53.174;5.798;2023-10-08T04:05:15;5.70;;;1.27;;
53871;SDS011;39787;53.174;5.798;2023-10-08T04:06:16;4.57;;;0.70;;
53871;SDS011;39787;53.174;5.798;2023-10-08T04:07:20;3.70;;;0.87;;
53871;SDS011;39787;53.174;5.798;2023-10-08T04:08:21;8.00;;;1.58;;
53871;SDS011;39787;53.174;5.798;2023-10-08T04:09:22;5.23;;;1.03;;
53871;SDS011;39787;53.174;5.798;2023-10-08T04:10:22;3.77;;;0.80;;
53871;SDS011;39787;53.174;5.798;2023-10-08T04:11:22;6.30;;;1.03;;
53871;SDS011;39787;53.174;5.798;2023-10-08T04:12:23;5.87;;;1.20;;
53871;SDS011;39787;53.174;5.798;2023-10-08T04:13:23;8.77;;;0.80;;
53871;SDS011;39787;53.174;5.798;2023-10-08T04:14:24;5.43;;;1.33;;
53871;SDS011;39787;53.174;5.798;2023-10-08T04:15:25;7.65;;;1.17;;
53871;SDS011;39787;53.174;5.798;2023-10-08T04:16:26;10.63;;;1.80;;
53871;SDS011;39787;53.174;5.798;2023-10-08T04:17:26;10.63;;;1.37;;
53871;SDS011;39787;53.174;5.798;2023-10-08T04:18:26;10.43;;;1.47;;
53871;SDS011;39787;53.174;5.798;2023-10-08T04:19:27;8.07;;;1.57;;
53871;SDS011;39787;53.174;5.798;2023-10-08T04:20:27;7.80;;;1.40;;
53871;SDS011;39787;53.174;5.798;2023-10-08T04:21:28;6.70;;;1.37;;
53871;SDS011;39787;53.174;5.798;2023-10-08T04:22:28;8.67;;;1.50;;
53871;SDS011;39787;53.174;5.798;2023-10-08T04:23:29;4.73;;;1.33;;
53871;SDS011;39787;53.174;5.798;2023-10-08T04:24:29;10.07;;;2.77;;
53871;SDS011;39787;53.174;5.798;2023-10-08T04:25:30;5.83;;;1.00;;
53871;SDS011;39787;53.174;5.798;2023-10-08T04:26:31;6.47;;;1.23;;
53871;SDS011;39787;53.174;5.798;2023-10-08T04:27:33;6.27;;;1.80;;
53871;SDS011;39787;53.174;5.798;2023-10-08T04:28:34;7.25;;;1.20;;
53871;SDS011;39787;53.174;5.798;2023-10-08T04:29:34;8.73;;;1.87;;
53871;SDS011;39787;53.174;5.798;2023-10-08T04:30:35;9.63;;;1.37;;
53871;SDS011;39787;53.174;5.798;2023-10-08T04:31:36;9.05;;;1.75;;
53871;SDS011;39787;53.174;5.798;2023-10-08T04:32:36;10.17;;;1.57;;
53871;SDS011;39787;53.174;5.798;2023-10-08T04:33:36;6.30;;;1.30;;
53871;SDS011;39787;53.174;5.798;2023-10-08T04:34:37;9.10;;;1.50;;
53871;SDS011;39787;53.174;5.798;2023-10-08T04:35:38;13.17;;;1.60;;
53871;SDS011;39787;53.174;5.798;2023-10-08T04:36:40;6.95;;;1.10;;
53871;SDS011;39787;53.174;5.798;2023-10-08T04:37:44;6.75;;;1.10;;
53871;SDS011;39787;53.174;5.798;2023-10-08T04:38:45;5.03;;;1.03;;
53871;SDS011;39787;53.174;5.798;2023-10-08T04:39:46;7.90;;;1.70;;
53871;SDS011;39787;53.174;5.798;2023-10-08T04:40:46;7.07;;;1.80;;
53871;SDS011;39787;53.174;5.798;2023-10-08T04:41:47;3.83;;;1.00;;
53871;SDS011;39787;53.174;5.798;2023-10-08T04:42:48;6.43;;;1.90;;
53871;SDS011;39787;53.174;5.798;2023-10-08T04:43:48;9.30;;;1.73;;
53871;SDS011;39787;53.174;5.798;2023-10-08T04:44:49;11.13;;;1.73;;
53871;SDS011;39787;53.174;5.798;2023-10-08T04:45:49;5.30;;;1.27;;
53871;SDS011;39787;53.174;5.798;2023-10-08T04:46:49;7.13;;;1.47;;
53871;SDS011;39787;53.174;5.798;2023-10-08T04:47:50;6.17;;;1.33;;
53871;SDS011;39787;53.174;5.798;2023-10-08T04:48:50;7.37;;;1.60;;
53871;SDS011;39787;53.174;5.798;2023-10-08T04:49:51;8.77;;;1.77;;
53871;SDS011;39787;53.174;5.798;2023-10-08T04:50:51;4.53;;;1.30;;
53871;SDS011;39787;53.174;5.798;2023-10-08T04:51:53;6.93;;;1.70;;
53871;SDS011;39787;53.174;5.798;2023-10-08T04:52:54;10.02;;;2.00;;
53871;SDS011;39787;53.174;5.798;2023-10-08T04:53:54;10.33;;;1.70;;
53871;SDS011;39787;53.174;5.798;2023-10-08T04:54:55;7.43;;;1.70;;
53871;SDS011;39787;53.174;5.798;2023-10-08T04:55:55;11.77;;;2.07;;
53871;SDS011;39787;53.174;5.798;2023-10-08T04:56:59;7.20;;;1.83;;
53871;SDS011;39787;53.174;5.798;2023-10-08T04:58:01;10.00;;;2.22;;
53871;SDS011;39787;53.174;5.798;2023-10-08T04:59:01;11.35;;;2.15;;
53871;SDS011;39787;53.174;5.798;2023-10-08T05:00:02;4.63;;;2.07;;
53871;SDS011;39787;53.174;5.798;2023-10-08T05:01:03;7.20;;;2.03;;
53871;SDS011;39787;53.174;5.798;2023-10-08T05:02:04;7.22;;;1.90;;
53871;SDS011;39787;53.174;5.798;2023-10-08T05:03:05;8.23;;;1.88;;
53871;SDS011;39787;53.174;5.798;2023-10-08T05:04:05;5.80;;;1.97;;
53871;SDS011;39787;53.174;5.798;2023-10-08T05:05:06;9.57;;;2.03;;
53871;SDS011;39787;53.174;5.798;2023-10-08T05:06:06;14.23;;;2.23;;
53871;SDS011;39787;53.174;5.798;2023-10-08T05:07:07;6.43;;;1.70;;
53871;SDS011;39787;53.174;5.798;2023-10-08T05:08:07;5.47;;;1.47;;
53871;SDS011;39787;53.174;5.798;2023-10-08T05:09:10;7.10;;;1.47;;
53871;SDS011;39787;53.174;5.798;2023-10-08T05:10:12;6.68;;;1.55;;
53871;SDS011;39787;53.174;5.798;2023-10-08T05:11:14;11.65;;;1.58;;
53871;SDS011;39787;53.174;5.798;2023-10-08T05:12:14;10.63;;;1.75;;
53871;SDS011;39787;53.174;5.798;2023-10-08T05:13:15;9.07;;;1.90;;
53871;SDS011;39787;53.174;5.798;2023-10-08T05:14:19;8.73;;;1.90;;
53871;SDS011;39787;53.174;5.798;2023-10-08T05:15:20;8.02;;;1.65;;
53871;SDS011;39787;53.174;5.798;2023-10-08T05:16:22;8.10;;;1.77;;
53871;SDS011;39787;53.174;5.798;2023-10-08T05:17:23;14.57;;;1.95;;
53871;SDS011;39787;53.174;5.798;2023-10-08T05:18:23;8.27;;;1.73;;
53871;SDS011;39787;53.174;5.798;2023-10-08T05:19:23;9.73;;;1.70;;
53871;SDS011;39787;53.174;5.798;2023-10-08T05:20:24;11.83;;;1.87;;
53871;SDS011;39787;53.174;5.798;2023-10-08T05:21:24;8.70;;;1.97;;
53871;SDS011;39787;53.174;5.798;2023-10-08T05:22:25;7.20;;;1.57;;
53871;SDS011;39787;53.174;5.798;2023-10-08T05:23:25;8.00;;;1.70;;
53871;SDS011;39787;53.174;5.798;2023-10-08T05:24:28;7.00;;;2.23;;
53871;SDS011;39787;53.174;5.798;2023-10-08T05:25:29;12.13;;;2.13;;
53871;SDS011;39787;53.174;5.798;2023-10-08T05:26:29;11.27;;;2.30;;
53871;SDS011;39787;53.174;5.798;2023-10-08T05:27:30;15.40;;;2.13;;
53871;SDS011;39787;53.174;5.798;2023-10-08T05:28:30;17.63;;;2.17;;
53871;SDS011;39787;53.174;5.798;2023-10-08T05:29:31;11.85;;;1.95;;
53871;SDS011;39787;53.174;5.798;2023-10-08T05:30:31;14.63;;;1.90;;
53871;SDS011;39787;53.174;5.798;2023-10-08T05:31:32;12.97;;;3.07;;
53871;SDS011;39787;53.174;5.798;2023-10-08T05:32:32;9.60;;;1.90;;
53871;SDS011;39787;53.174;5.798;2023-10-08T05:33:33;10.50;;;1.70;;
53871;SDS011;39787;53.174;5.798;2023-10-08T05:34:33;8.43;;;1.73;;
53871;SDS011;39787;53.174;5.798;2023-10-08T05:35:37;11.47;;;2.10;;
53871;SDS011;39787;53.174;5.798;2023-10-08T05:36:39;12.27;;;1.95;;
53871;SDS011;39787;53.174;5.798;2023-10-08T05:37:39;13.03;;;1.60;;
53871;SDS011;39787;53.174;5.798;2023-10-08T05:38:40;12.27;;;1.77;;
53871;SDS011;39787;53.174;5.798;2023-10-08T05:39:40;7.13;;;1.70;;
53871;SDS011;39787;53.174;5.798;2023-10-08T05:40:42;7.43;;;1.87;;
53871;SDS011;39787;53.174;5.798;2023-10-08T05:41:42;11.90;;;2.17;;
53871;SDS011;39787;53.174;5.798;2023-10-08T05:42:43;11.60;;;2.10;;
53871;SDS011;39787;53.174;5.798;2023-10-08T05:43:43;7.00;;;1.77;;
53871;SDS011;39787;53.174;5.798;2023-10-08T05:44:44;10.50;;;1.87;;
53871;SDS011;39787;53.174;5.798;2023-10-08T05:45:45;14.27;;;1.80;;
53871;SDS011;39787;53.174;5.798;2023-10-08T05:46:46;11.63;;;1.60;;
53871;SDS011;39787;53.174;5.798;2023-10-08T05:47:46;7.43;;;1.57;;
53871;SDS011;39787;53.174;5.798;2023-10-08T05:48:47;9.60;;;1.97;;
53871;SDS011;39787;53.174;5.798;2023-10-08T05:49:49;8.90;;;1.52;;
53871;SDS011;39787;53.174;5.798;2023-10-08T05:50:50;10.43;;;1.70;;
53871;SDS011;39787;53.174;5.798;2023-10-08T05:51:50;10.00;;;1.47;;
53871;SDS011;39787;53.174;5.798;2023-10-08T05:52:51;9.33;;;2.03;;
53871;SDS011;39787;53.174;5.798;2023-10-08T05:53:51;10.83;;;1.53;;
53871;SDS011;39787;53.174;5.798;2023-10-08T05:54:52;12.33;;;1.83;;
53871;SDS011;39787;53.174;5.798;2023-10-08T05:55:52;7.33;;;1.83;;
53871;SDS011;39787;53.174;5.798;2023-10-08T05:56:53;11.03;;;1.80;;
53871;SDS011;39787;53.174;5.798;2023-10-08T05:57:54;13.65;;;1.83;;
53871;SDS011;39787;53.174;5.798;2023-10-08T05:58:55;9.07;;;1.65;;
53871;SDS011;39787;53.174;5.798;2023-10-08T05:59:56;7.43;;;1.40;;
53871;SDS011;39787;53.174;5.798;2023-10-08T06:00:56;7.87;;;1.87;;
53871;SDS011;39787;53.174;5.798;2023-10-08T06:01:57;13.20;;;1.60;;
53871;SDS011;39787;53.174;5.798;2023-10-08T06:02:58;13.77;;;2.25;;
53871;SDS011;39787;53.174;5.798;2023-10-08T06:03:58;10.70;;;2.00;;
53871;SDS011;39787;53.174;5.798;2023-10-08T06:05:00;10.73;;;1.77;;
53871;SDS011;39787;53.174;5.798;2023-10-08T06:06:01;9.63;;;1.80;;
53871;SDS011;39787;53.174;5.798;2023-10-08T06:07:03;8.18;;;1.92;;
53871;SDS011;39787;53.174;5.798;2023-10-08T06:08:04;13.93;;;1.97;;
53871;SDS011;39787;53.174;5.798;2023-10-08T06:09:05;11.80;;;1.80;;
53871;SDS011;39787;53.174;5.798;2023-10-08T06:10:05;9.03;;;1.97;;